createdAt,value
2022-10-16T00:00:59.531Z,7.00
2022-10-16T00:03:29.661Z,8.50
2022-10-16T00:06:00.599Z,7.00
2022-10-16T00:08:28.224Z,7.75
2022-10-16T00:11:00.818Z,8.00
2022-10-16T00:13:29.510Z,8.00
2022-10-16T00:15:57.121Z,7.00
2022-10-16T00:18:24.604Z,4.25
2022-10-16T00:20:52.232Z,8.00
2022-10-16T00:23:19.700Z,8.00
2022-10-16T00:25:47.153Z,8.25
2022-10-16T00:28:14.560Z,7.00
2022-10-16T00:30:43.228Z,8.75
2022-10-16T00:33:10.624Z,8.00
2022-10-16T00:35:38.033Z,7.00
2022-10-16T00:38:05.438Z,6.00
2022-10-16T00:40:32.824Z,7.00
2022-10-16T00:43:00.222Z,8.33
2022-10-16T00:45:27.638Z,7.00
2022-10-16T00:47:56.376Z,6.33
2022-10-16T00:50:24.857Z,7.33
2022-10-16T00:52:52.365Z,8.67
2022-10-16T00:55:19.808Z,6.00
2022-10-16T00:57:47.287Z,7.00
2022-10-16T01:00:16.824Z,7.00
2022-10-16T01:02:44.280Z,6.25
2022-10-16T01:05:12.957Z,7.00
2022-10-16T01:07:44.275Z,6.25
2022-10-16T01:10:16.413Z,6.00
2022-10-16T01:12:47.077Z,6.00
2022-10-16T01:15:18.567Z,7.00
2022-10-16T01:17:47.947Z,7.00
2022-10-16T01:20:22.536Z,6.00
2022-10-16T01:22:57.985Z,6.00
2022-10-16T01:25:29.188Z,6.00
2022-10-16T01:27:57.871Z,6.00
2022-10-16T01:30:26.914Z,5.00
2022-10-16T01:32:56.992Z,6.00
2022-10-16T01:35:25.601Z,6.25
2022-10-16T01:37:54.854Z,6.00
2022-10-16T01:40:22.528Z,6.50
2022-10-16T01:42:50.786Z,5.00
2022-10-16T01:45:19.853Z,6.75
2022-10-16T01:47:47.348Z,7.75
2022-10-16T01:50:14.741Z,6.00
2022-10-16T01:52:43.915Z,5.00
2022-10-16T01:55:11.637Z,6.00
2022-10-16T01:57:40.111Z,5.00
2022-10-16T02:00:09.343Z,5.00
2022-10-16T02:02:44.939Z,6.67
2022-10-16T02:05:14.985Z,6.67
2022-10-16T02:07:43.061Z,6.00
2022-10-16T02:10:10.836Z,5.00
2022-10-16T02:12:40.337Z,5.00
2022-10-16T02:15:08.109Z,5.67
2022-10-16T02:17:35.510Z,6.00
2022-10-16T02:20:05.470Z,5.33
2022-10-16T02:22:34.683Z,6.00
2022-10-16T02:25:04.352Z,5.00
2022-10-16T02:27:34.736Z,5.00
2022-10-16T02:30:08.794Z,4.67
2022-10-16T02:32:36.319Z,5.00
2022-10-16T02:35:05.308Z,5.00
2022-10-16T02:37:32.721Z,5.00
2022-10-16T02:40:00.217Z,6.75
2022-10-16T02:42:31.554Z,5.00
2022-10-16T02:44:58.948Z,6.00
2022-10-16T02:47:26.358Z,5.00
2022-10-16T02:49:53.745Z,5.00
2022-10-16T02:52:22.549Z,4.25
2022-10-16T02:54:49.937Z,3.75
2022-10-16T02:57:17.335Z,6.00
2022-10-16T02:59:44.741Z,5.00
2022-10-16T03:02:12.283Z,4.00
2022-10-16T03:04:39.664Z,4.00
2022-10-16T03:07:07.071Z,4.00
2022-10-16T03:09:35.878Z,4.00
2022-10-16T03:12:03.334Z,5.00
2022-10-16T03:14:30.817Z,5.00
2022-10-16T03:16:58.224Z,5.00
2022-10-16T03:19:25.800Z,4.25
2022-10-16T03:21:53.213Z,3.00
2022-10-16T03:24:20.591Z,3.75
2022-10-16T03:26:49.277Z,3.75
2022-10-16T03:29:16.692Z,4.00
2022-10-16T03:31:44.136Z,3.50
2022-10-16T03:34:11.351Z,4.00
2022-10-16T03:36:38.860Z,3.00
2022-10-16T03:39:06.271Z,4.00
2022-10-16T03:41:33.669Z,4.00
2022-10-16T03:44:02.357Z,1.00
2022-10-16T03:46:30.419Z,5.00
2022-10-16T03:48:57.805Z,4.00
2022-10-16T03:51:25.204Z,4.00
2022-10-16T03:53:52.596Z,4.00
2022-10-16T03:56:19.995Z,3.00
2022-10-16T03:58:47.402Z,4.00
2022-10-16T04:01:16.120Z,3.75
2022-10-16T04:03:43.541Z,3.25
2022-10-16T04:06:10.918Z,3.25
2022-10-16T04:08:40.021Z,4.00
2022-10-16T04:11:07.396Z,4.00
2022-10-16T04:13:34.787Z,2.00
2022-10-16T04:16:02.220Z,4.00
2022-10-16T04:18:30.952Z,4.00
2022-10-16T04:20:58.423Z,3.00
2022-10-16T04:23:25.887Z,3.00
2022-10-16T04:25:53.285Z,3.00
2022-10-16T04:28:20.702Z,3.00
2022-10-16T04:30:48.127Z,3.00
2022-10-16T04:33:15.789Z,4.50
2022-10-16T04:35:44.322Z,3.75
2022-10-16T04:38:11.716Z,4.00
2022-10-16T04:40:39.115Z,3.00
2022-10-16T04:43:06.712Z,3.00
2022-10-16T04:45:34.108Z,3.00
2022-10-16T04:48:01.616Z,2.50
2022-10-16T04:50:29.039Z,3.25
2022-10-16T04:53:07.966Z,4.00
2022-10-16T04:55:35.380Z,3.00
2022-10-16T04:58:02.814Z,3.00
2022-10-16T05:00:30.260Z,4.00
2022-10-16T05:02:58.054Z,3.00
2022-10-16T05:05:25.750Z,2.25
2022-10-16T05:07:53.129Z,3.00
2022-10-16T05:10:21.876Z,2.25
2022-10-16T05:12:49.287Z,3.00
2022-10-16T05:15:16.840Z,2.75
2022-10-16T05:17:44.861Z,3.00
2022-10-16T05:20:12.352Z,3.00
2022-10-16T05:22:39.775Z,3.00
2022-10-16T05:25:07.234Z,2.50
2022-10-16T05:27:35.925Z,3.00
2022-10-16T05:30:03.343Z,3.00
2022-10-16T05:32:30.809Z,3.00
2022-10-16T05:35:00.240Z,2.50
2022-10-16T05:37:27.942Z,3.00
2022-10-16T05:39:55.684Z,3.00
2022-10-16T05:42:23.085Z,3.00
2022-10-16T05:44:51.779Z,2.00
2022-10-16T05:47:21.790Z,3.00
2022-10-16T05:49:49.174Z,3.00
2022-10-16T05:52:16.583Z,3.00
2022-10-16T05:54:44.422Z,3.00
2022-10-16T05:57:11.826Z,2.75
2022-10-16T05:59:39.318Z,3.00
2022-10-16T06:02:08.097Z,2.50
2022-10-16T06:04:35.496Z,3.00
2022-10-16T06:07:02.922Z,2.25
2022-10-16T06:09:30.389Z,2.75
2022-10-16T06:11:57.796Z,3.00
2022-10-16T06:14:25.257Z,2.00
2022-10-16T06:16:52.639Z,2.00
2022-10-16T06:19:21.348Z,2.00
2022-10-16T06:21:48.925Z,3.00
2022-10-16T06:24:16.302Z,3.00
2022-10-16T06:26:43.897Z,3.00
2022-10-16T06:29:11.320Z,3.00
2022-10-16T06:31:38.568Z,4.00
2022-10-16T06:34:10.212Z,3.00
2022-10-16T06:36:39.000Z,2.75
2022-10-16T06:39:08.137Z,3.00
2022-10-16T06:41:35.689Z,4.00
2022-10-16T06:44:15.922Z,2.00
2022-10-16T06:46:43.310Z,2.25
2022-10-16T06:49:10.707Z,2.00
2022-10-16T06:51:43.226Z,3.00
2022-10-16T06:54:11.036Z,3.00
2022-10-16T06:56:38.557Z,3.00
2022-10-16T06:59:05.948Z,2.00
2022-10-16T07:01:33.923Z,2.50
2022-10-16T07:04:01.834Z,2.00
2022-10-16T07:06:29.371Z,3.00
2022-10-16T07:08:58.073Z,3.50
2022-10-16T07:11:25.597Z,3.25
2022-10-16T07:13:56.137Z,4.25
2022-10-16T07:16:25.132Z,7.25
2022-10-16T07:18:58.519Z,6.25
2022-10-16T07:21:26.550Z,5.00
2022-10-16T07:23:54.122Z,6.00
2022-10-16T07:26:22.897Z,7.00
2022-10-16T07:28:50.557Z,3.33
2022-10-16T07:31:18.788Z,6.00
2022-10-16T07:33:46.538Z,6.00
2022-10-16T07:36:16.260Z,5.00
2022-10-16T07:38:44.165Z,5.00
2022-10-16T07:41:12.358Z,5.33
2022-10-16T07:43:41.074Z,4.33
2022-10-16T07:46:08.493Z,5.67
2022-10-16T07:48:36.595Z,5.00
2022-10-16T07:51:05.072Z,4.00
2022-10-16T07:53:32.513Z,4.00
2022-10-16T07:56:00.485Z,5.00
2022-10-16T07:58:27.939Z,4.67
2022-10-16T08:00:56.690Z,4.25
2022-10-16T08:03:24.146Z,3.25
2022-10-16T08:05:51.584Z,4.00
2022-10-16T08:08:19.280Z,3.00
2022-10-16T08:10:46.726Z,3.00
2022-10-16T08:13:15.967Z,3.00
2022-10-16T08:15:43.930Z,3.00
2022-10-16T08:18:12.794Z,4.00
2022-10-16T08:20:40.486Z,3.00
2022-10-16T08:23:07.876Z,3.00
2022-10-16T08:25:36.303Z,3.00
2022-10-16T08:28:05.155Z,4.00
2022-10-16T08:30:32.545Z,3.50
2022-10-16T08:32:59.984Z,3.00
2022-10-16T08:35:28.653Z,3.00
2022-10-16T08:37:56.045Z,3.75
2022-10-16T08:43:06.237Z,3.00
2022-10-16T08:45:42.053Z,3.00
2022-10-16T08:48:16.633Z,2.00
2022-10-16T08:50:46.512Z,3.00
2022-10-16T08:53:17.038Z,3.00
2022-10-16T08:55:45.101Z,3.25
2022-10-16T08:58:16.252Z,2.00
2022-10-16T09:00:44.132Z,2.00
2022-10-16T09:03:16.168Z,2.50
2022-10-16T09:05:54.085Z,2.75
2022-10-16T09:08:25.385Z,2.75
2022-10-16T09:10:56.370Z,2.00
2022-10-16T09:13:25.739Z,2.75
2022-10-16T09:15:56.794Z,3.00
2022-10-16T09:18:30.062Z,3.00
2022-10-16T09:21:03.600Z,2.25
2022-10-16T09:23:31.773Z,2.25
2022-10-16T09:26:00.206Z,2.50
2022-10-16T09:28:27.652Z,2.00
2022-10-16T09:30:55.528Z,1.75
2022-10-16T09:33:24.442Z,3.00
2022-10-16T09:35:52.859Z,2.00
2022-10-16T09:38:26.208Z,2.00
2022-10-16T09:40:58.933Z,2.50
2022-10-16T09:43:32.493Z,1.50
2022-10-16T09:46:00.571Z,2.50
2022-10-16T09:48:30.145Z,3.00
2022-10-16T09:50:58.299Z,2.00
2022-10-16T09:53:27.659Z,2.50
2022-10-16T09:55:55.292Z,2.50
2022-10-16T09:58:23.499Z,2.75
2022-10-16T10:00:51.324Z,2.00
2022-10-16T10:03:38.365Z,2.00
2022-10-16T10:06:08.845Z,2.25
2022-10-16T10:08:37.569Z,2.00
2022-10-16T10:11:05.700Z,2.00
2022-10-16T10:13:33.094Z,2.00
2022-10-16T10:16:00.475Z,2.00
2022-10-16T10:18:27.861Z,1.75
2022-10-16T10:21:02.006Z,2.25
2022-10-16T10:23:30.831Z,1.25
2022-10-16T10:26:01.379Z,2.00
2022-10-16T10:28:44.117Z,1.75
2022-10-16T10:31:13.774Z,2.25
2022-10-16T10:33:44.481Z,2.00
2022-10-16T10:36:16.987Z,1.50
2022-10-16T10:38:48.503Z,1.25
2022-10-16T10:41:36.704Z,2.00
2022-10-16T10:44:07.995Z,1.25
2022-10-16T10:46:39.799Z,1.00
2022-10-16T10:49:18.599Z,1.00
2022-10-16T10:51:49.257Z,1.25
2022-10-16T10:54:18.103Z,1.50
2022-10-16T10:56:49.371Z,1.00
2022-10-16T10:59:42.507Z,2.00
2022-10-16T11:02:16.026Z,2.00
2022-10-16T11:05:05.096Z,1.25
2022-10-16T11:07:34.135Z,1.25
2022-10-16T11:10:04.523Z,1.00
2022-10-16T11:12:33.974Z,1.00
2022-10-16T11:15:03.559Z,1.25
2022-10-16T11:17:32.324Z,1.00
2022-10-16T11:20:02.208Z,1.00
2022-10-16T11:22:32.496Z,1.00
2022-10-16T11:25:03.758Z,1.00
2022-10-16T11:27:37.896Z,1.00
2022-10-16T11:30:07.438Z,1.00
2022-10-16T11:32:40.533Z,1.00
2022-10-16T11:35:13.105Z,1.00
2022-10-16T11:37:41.962Z,1.00
2022-10-16T11:40:18.650Z,1.00
2022-10-16T11:42:50.686Z,1.00
2022-10-16T11:45:25.294Z,1.00
2022-10-16T11:47:59.414Z,1.00
2022-10-16T11:50:30.405Z,1.67
2022-10-16T11:53:00.786Z,1.00
2022-10-16T11:55:31.497Z,1.33
2022-10-16T11:58:03.383Z,1.00
2022-10-16T12:00:32.477Z,1.00
2022-10-16T12:03:02.312Z,1.00
2022-10-16T12:05:35.468Z,1.00
2022-10-16T12:08:08.353Z,0.25
2022-10-16T12:13:35.809Z,1.00
2022-10-16T12:16:07.593Z,1.00
2022-10-16T12:18:35.006Z,1.25
2022-10-16T12:21:06.432Z,1.00
2022-10-16T12:23:33.821Z,2.00
2022-10-16T12:26:01.489Z,1.00
2022-10-16T12:28:29.674Z,1.00
2022-10-16T12:30:59.602Z,1.00
2022-10-16T12:33:27.663Z,1.00
2022-10-16T12:35:55.044Z,1.00
2022-10-16T12:38:23.580Z,1.00
2022-10-16T12:40:57.532Z,1.00
2022-10-16T12:43:30.194Z,1.00
2022-10-16T12:46:03.476Z,1.00
2022-10-16T12:48:37.089Z,1.00
2022-10-16T12:51:24.211Z,1.00
2022-10-16T12:54:00.270Z,1.00
2022-10-16T12:56:31.320Z,1.67
2022-10-16T12:59:04.533Z,1.00
2022-10-16T13:01:39.645Z,1.00
2022-10-16T13:04:15.549Z,1.00
2022-10-16T13:06:46.690Z,1.00
2022-10-16T13:09:22.889Z,1.00
2022-10-16T13:12:12.019Z,1.00
2022-10-16T13:14:48.496Z,1.00
2022-10-16T13:17:20.323Z,0.00
2022-10-16T13:19:50.312Z,0.00
2022-10-16T13:22:20.963Z,1.00
2022-10-16T13:24:57.758Z,0.00
2022-10-16T13:27:30.456Z,1.00
2022-10-16T13:30:03.416Z,1.00
2022-10-16T13:32:32.137Z,1.00
2022-10-16T13:35:01.137Z,0.00
2022-10-16T13:37:28.939Z,0.67
2022-10-16T13:40:06.593Z,1.00
2022-10-16T13:42:34.442Z,1.00
2022-10-16T13:45:01.820Z,1.00
2022-10-16T13:47:30.307Z,1.00
2022-10-16T13:50:05.341Z,1.00
2022-10-16T13:52:32.852Z,1.00
2022-10-16T13:55:02.105Z,0.75
2022-10-16T13:57:30.058Z,0.33
2022-10-16T13:59:57.459Z,1.00
2022-10-16T14:02:28.469Z,1.00
2022-10-16T14:04:56.152Z,1.00
2022-10-16T14:07:26.891Z,1.00
2022-10-16T14:09:54.767Z,1.00
2022-10-16T14:12:27.070Z,0.67
2022-10-16T14:14:55.936Z,1.00
2022-10-16T14:17:25.107Z,1.00
2022-10-16T14:19:56.978Z,1.00
2022-10-16T14:22:32.207Z,1.00
2022-10-16T14:24:59.591Z,2.00
2022-10-16T14:27:30.696Z,1.00
2022-10-16T14:30:19.354Z,1.00
2022-10-16T14:32:55.238Z,1.00
2022-10-16T14:35:27.067Z,1.25
2022-10-16T14:37:55.947Z,1.00
2022-10-16T14:40:24.796Z,1.25
2022-10-16T14:42:52.357Z,2.00
2022-10-16T14:45:21.336Z,2.00
2022-10-16T14:47:51.085Z,2.50
2022-10-16T14:50:18.685Z,2.00
2022-10-16T14:52:46.092Z,3.00
2022-10-16T14:55:14.843Z,3.00
2022-10-16T14:57:42.269Z,2.00
2022-10-16T15:00:17.140Z,2.75
2022-10-16T15:02:44.550Z,2.00
2022-10-16T15:05:17.559Z,2.50
2022-10-16T15:07:45.150Z,3.00
2022-10-16T15:10:12.536Z,2.75
2022-10-16T15:12:41.307Z,3.00
2022-10-16T15:15:29.999Z,2.25
2022-10-16T15:17:57.955Z,2.00
2022-10-16T15:20:25.479Z,2.00
2022-10-16T15:22:52.878Z,2.25
2022-10-16T15:25:29.427Z,3.00
2022-10-16T15:27:58.166Z,3.75
2022-10-16T15:30:25.559Z,3.00
2022-10-16T15:32:52.956Z,2.00
2022-10-16T15:35:20.507Z,2.75
2022-10-16T15:37:48.045Z,2.00
2022-10-16T15:40:15.520Z,3.00
2022-10-16T15:42:42.903Z,3.00
2022-10-16T15:45:12.402Z,2.00
2022-10-16T15:47:43.626Z,2.00
2022-10-16T15:50:13.504Z,3.00
2022-10-16T15:52:41.092Z,3.00
2022-10-16T15:55:09.327Z,2.75
2022-10-16T15:57:39.014Z,2.75
2022-10-16T16:00:10.606Z,2.25
2022-10-16T16:02:40.721Z,3.00
2022-10-16T16:05:09.788Z,2.33
2022-10-16T16:07:37.285Z,3.00
2022-10-16T16:10:05.240Z,2.33
2022-10-16T16:12:32.627Z,3.00
2022-10-16T16:15:02.121Z,2.00
2022-10-16T16:17:32.453Z,3.50
2022-10-16T16:20:01.153Z,3.00
2022-10-16T16:22:28.888Z,3.75
2022-10-16T16:24:56.619Z,3.25
2022-10-16T16:27:26.109Z,2.00
2022-10-16T16:29:54.375Z,3.00
2022-10-16T16:32:21.932Z,2.50
2022-10-16T16:34:49.319Z,3.00
2022-10-16T16:37:18.195Z,4.00
2022-10-16T16:39:45.652Z,3.75
2022-10-16T16:42:13.088Z,3.75
2022-10-16T16:44:40.470Z,4.00
2022-10-16T16:47:07.948Z,4.50
2022-10-16T16:49:35.374Z,3.00
2022-10-16T16:52:02.772Z,3.75
2022-10-16T16:54:31.596Z,3.75
2022-10-16T16:56:59.031Z,4.00
2022-10-16T16:59:26.416Z,4.00
2022-10-16T17:01:57.000Z,4.00
2022-10-16T17:04:24.716Z,4.50
2022-10-16T17:06:52.155Z,5.00
2022-10-16T17:09:19.535Z,4.00
2022-10-16T17:11:49.137Z,5.50
2022-10-16T17:14:16.909Z,4.25
2022-10-16T17:16:44.988Z,5.25
2022-10-16T17:19:13.883Z,5.75
2022-10-16T17:21:41.325Z,6.00
2022-10-16T17:24:08.767Z,5.75
2022-10-16T17:26:38.173Z,6.00
2022-10-16T17:29:06.945Z,7.00
2022-10-16T17:31:35.860Z,5.50
2022-10-16T17:34:04.715Z,5.00
2022-10-16T17:36:33.031Z,2.00
2022-10-16T17:39:01.624Z,6.75
2022-10-16T17:41:29.071Z,5.00
2022-10-16T17:43:56.461Z,6.00
2022-10-16T17:46:25.513Z,7.00
2022-10-16T17:48:54.718Z,7.50
2022-10-16T17:51:23.531Z,6.00
2022-10-16T17:53:51.126Z,7.50
2022-10-16T17:56:18.567Z,6.00
2022-10-16T17:58:51.395Z,6.25
2022-10-16T18:01:23.938Z,8.25
2022-10-16T18:03:52.773Z,6.75
2022-10-16T18:06:23.014Z,6.75
2022-10-16T18:08:50.876Z,7.25
2022-10-16T18:11:18.302Z,7.50
2022-10-16T18:13:45.793Z,8.00
2022-10-16T18:16:13.964Z,7.00
2022-10-16T18:18:42.046Z,7.25
2022-10-16T18:21:15.319Z,8.00
2022-10-16T18:23:45.308Z,8.25
2022-10-16T18:26:15.835Z,7.00
2022-10-16T18:28:43.733Z,6.50
2022-10-16T18:31:13.618Z,8.50
2022-10-16T18:33:41.139Z,9.00
2022-10-16T18:36:10.694Z,9.00
2022-10-16T18:38:38.547Z,8.25
2022-10-16T18:41:06.400Z,8.50
2022-10-16T18:43:34.032Z,8.25
2022-10-16T18:46:02.440Z,9.75
2022-10-16T18:48:31.117Z,9.25
2022-10-16T18:51:07.633Z,9.00
2022-10-16T18:53:36.420Z,9.00
2022-10-16T18:56:03.811Z,11.00
2022-10-16T18:58:31.513Z,11.00
2022-10-16T19:01:04.234Z,9.25
2022-10-16T19:03:31.886Z,9.00
2022-10-16T19:06:01.316Z,10.50
2022-10-16T19:08:29.826Z,8.25
2022-10-16T19:10:59.394Z,9.25
2022-10-16T19:13:26.773Z,7.25
2022-10-16T19:15:58.419Z,10.75
2022-10-16T19:18:27.163Z,11.00
2022-10-16T19:20:54.668Z,12.00
2022-10-16T19:23:22.257Z,9.50
2022-10-16T19:25:49.766Z,11.00
2022-10-16T19:28:18.526Z,10.75
2022-10-16T19:30:47.559Z,11.00
2022-10-16T19:33:15.027Z,9.75
2022-10-16T19:35:42.628Z,7.50
2022-10-16T19:38:10.121Z,10.00
2022-10-16T19:40:37.516Z,11.00
2022-10-16T19:43:04.908Z,11.00
2022-10-16T19:45:34.326Z,12.00
2022-10-16T19:48:01.730Z,9.00
2022-10-16T19:50:29.140Z,11.50
2022-10-16T19:52:56.527Z,11.50
2022-10-16T19:55:24.346Z,11.00
2022-10-16T19:57:51.753Z,11.50
2022-10-16T20:00:19.173Z,11.25
2022-10-16T20:02:48.132Z,11.00
2022-10-16T20:05:15.536Z,10.75
2022-10-16T20:07:43.374Z,10.25
2022-10-16T20:10:11.035Z,12.00
2022-10-16T20:12:38.407Z,12.00
2022-10-16T20:15:06.373Z,13.00
2022-10-16T20:17:33.769Z,10.50
2022-10-16T20:20:02.503Z,12.00
2022-10-16T20:22:29.892Z,8.50
2022-10-16T20:24:57.349Z,12.25
2022-10-16T20:27:25.403Z,12.00
2022-10-16T20:29:53.067Z,11.00
2022-10-16T20:32:20.829Z,12.50
2022-10-16T20:34:49.357Z,13.50
2022-10-16T20:37:18.051Z,13.00
2022-10-16T20:39:45.472Z,13.25
2022-10-16T20:42:12.873Z,12.00
2022-10-16T20:44:40.288Z,13.00
2022-10-16T20:47:07.794Z,11.75
2022-10-16T20:49:40.828Z,12.75
2022-10-16T20:52:09.542Z,11.00
2022-10-16T20:54:38.304Z,13.50
2022-10-16T20:57:05.827Z,12.75
2022-10-16T20:59:33.201Z,14.00
2022-10-16T21:02:00.754Z,13.75
2022-10-16T21:04:28.302Z,13.25
2022-10-16T21:06:55.696Z,12.75
2022-10-16T21:09:23.139Z,13.25
2022-10-16T21:11:51.992Z,14.00
2022-10-16T21:14:19.401Z,12.75
2022-10-16T21:16:46.796Z,13.00
2022-10-16T21:19:14.182Z,12.00
2022-10-16T21:21:41.608Z,15.50
2022-10-16T21:24:12.212Z,14.75
2022-10-16T21:26:42.529Z,12.50
2022-10-16T21:29:11.415Z,13.75
2022-10-16T21:31:38.923Z,15.00
2022-10-16T21:34:06.302Z,0.00
2022-10-16T21:36:34.952Z,14.25
2022-10-16T21:39:02.541Z,14.00
2022-10-16T21:41:30.071Z,15.25
2022-10-16T21:43:58.001Z,15.00
2022-10-16T21:46:27.972Z,15.00
2022-10-16T21:48:55.424Z,14.50
2022-10-16T21:51:26.435Z,14.00
2022-10-16T21:53:53.864Z,14.50
2022-10-16T21:56:21.304Z,14.75
2022-10-16T21:58:48.716Z,15.00
2022-10-16T22:01:17.186Z,13.00
2022-10-16T22:03:46.250Z,15.00
2022-10-16T22:06:14.538Z,15.00
2022-10-16T22:08:41.981Z,15.25
2022-10-16T22:11:10.743Z,15.00
2022-10-16T22:13:38.251Z,12.00
2022-10-16T22:16:05.829Z,14.75
2022-10-16T22:18:33.262Z,16.00
2022-10-16T22:21:01.990Z,14.00
2022-10-16T22:23:29.388Z,16.00
2022-10-16T22:25:59.950Z,14.75
2022-10-16T22:28:27.386Z,16.00
2022-10-16T22:30:54.811Z,15.25
2022-10-16T22:33:22.268Z,16.25
2022-10-16T22:35:49.717Z,14.00
2022-10-16T22:38:18.391Z,12.75
2022-10-16T22:40:45.839Z,13.25
2022-10-16T22:43:13.229Z,16.00
2022-10-16T22:45:40.630Z,15.25
2022-10-16T22:48:08.043Z,15.00
2022-10-16T22:50:35.545Z,15.50
2022-10-16T22:53:02.924Z,14.00
2022-10-16T22:55:31.795Z,15.50
2022-10-16T22:57:59.181Z,16.00
2022-10-16T23:00:26.580Z,14.75
2022-10-16T23:02:53.987Z,15.25
2022-10-16T23:05:21.400Z,13.75
2022-10-16T23:07:49.737Z,16.00
2022-10-16T23:10:17.420Z,15.75
2022-10-16T23:12:46.887Z,12.50
2022-10-16T23:15:14.300Z,16.25
2022-10-16T23:17:41.738Z,14.25
2022-10-16T23:20:09.967Z,14.25
2022-10-16T23:22:37.373Z,13.00
2022-10-16T23:25:06.388Z,12.00
2022-10-16T23:27:33.875Z,13.00
2022-10-16T23:30:02.604Z,15.75
2022-10-16T23:32:30.238Z,14.00
2022-10-16T23:34:57.917Z,12.25
2022-10-16T23:37:25.324Z,14.75
2022-10-16T23:39:53.737Z,15.00
2022-10-16T23:42:21.183Z,13.00
2022-10-16T23:44:48.577Z,12.25
2022-10-16T23:47:17.238Z,13.00
2022-10-16T23:49:44.623Z,14.25
2022-10-16T23:52:12.015Z,14.00
2022-10-16T23:54:39.425Z,13.50
2022-10-16T23:57:06.815Z,14.00
2022-10-16T23:59:34.200Z,14.00
